createdAt,value
2022-12-11T06:42:45.629Z,79248.91
2022-12-11T06:45:15.612Z,79246.34
2022-12-11T06:47:44.732Z,79249.34
2022-12-11T06:50:13.636Z,79245.72
2022-12-11T06:52:42.413Z,79232.81
2022-12-11T06:55:14.892Z,79236.44
2022-12-11T06:57:43.671Z,79235.88
2022-12-11T07:00:13.372Z,79239.09
2022-12-11T07:02:42.783Z,79235.91
2022-12-11T07:05:21.732Z,79235.47
2022-12-11T07:07:50.982Z,79231.16
2022-12-11T07:10:20.953Z,79226.63
2022-12-11T07:12:49.808Z,79207.00
2022-12-11T07:15:18.562Z,79198.63
2022-12-11T07:17:47.463Z,79205.81
2022-12-11T07:20:16.543Z,79195.66
2022-12-11T07:22:46.848Z,79200.72
2022-12-11T07:25:16.067Z,79210.66
2022-12-11T07:27:44.733Z,79204.94
2022-12-11T07:30:14.318Z,79187.50
2022-12-11T07:32:43.016Z,79199.06
2022-12-11T07:35:12.275Z,79196.84
2022-12-11T07:37:45.804Z,79193.88
2022-12-11T07:40:15.145Z,79189.03
2022-12-11T07:42:46.244Z,79182.34
2022-12-11T07:45:16.001Z,79181.69
2022-12-11T07:47:45.112Z,79189.59
2022-12-11T07:50:14.193Z,79202.19
2022-12-11T07:52:43.125Z,79170.13
2022-12-11T07:55:14.848Z,79179.41
2022-12-11T07:57:43.767Z,79187.25
2022-12-11T08:00:13.003Z,79158.09
2022-12-11T08:02:41.805Z,79155.56
2022-12-11T08:05:14.997Z,79182.09
2022-12-11T08:07:43.884Z,79158.66
2022-12-11T08:10:12.865Z,79166.06
2022-12-11T08:12:41.829Z,79158.78
2022-12-11T08:15:11.369Z,79162.91
2022-12-11T08:17:41.225Z,79142.94
2022-12-11T08:20:10.473Z,79139.53
2022-12-11T08:22:39.414Z,79154.50
2022-12-11T08:25:09.163Z,79131.38
2022-12-11T08:27:38.550Z,79133.88
2022-12-11T08:30:07.942Z,79139.09
2022-12-11T08:32:36.959Z,79141.13
2022-12-11T08:35:05.918Z,79130.94
2022-12-11T08:37:35.828Z,79114.56
2022-12-11T08:40:04.893Z,79121.47
2022-12-11T08:42:33.770Z,79123.38
2022-12-11T08:45:02.386Z,79122.09
2022-12-11T08:47:31.164Z,79129.75
2022-12-11T08:49:59.917Z,79110.66
2022-12-11T08:52:30.553Z,79108.56
2022-12-11T08:54:59.696Z,79122.63
2022-12-11T08:57:29.828Z,79112.09
2022-12-11T08:59:58.817Z,79124.69
2022-12-11T09:02:27.852Z,79105.41
2022-12-11T09:04:56.944Z,79115.00
2022-12-11T09:07:26.269Z,79109.88
2022-12-11T09:09:58.385Z,79112.84
2022-12-11T09:12:27.187Z,79100.59
2022-12-11T09:14:56.221Z,79097.31
2022-12-11T09:17:25.263Z,79099.09
2022-12-11T09:19:53.981Z,79092.19
2022-12-11T09:22:22.908Z,79095.41
2022-12-11T09:24:51.828Z,79089.50
2022-12-11T09:27:22.211Z,79097.38
2022-12-11T09:29:51.849Z,79086.38
2022-12-11T09:32:20.805Z,79071.97
2022-12-11T09:34:52.162Z,79072.81
2022-12-11T09:37:21.209Z,79072.16
2022-12-11T09:39:49.919Z,79059.06
2022-12-11T09:42:45.426Z,79070.34
2022-12-11T09:45:17.188Z,79083.66
2022-12-11T09:47:51.415Z,79074.50
2022-12-11T09:50:27.917Z,79080.41
2022-12-11T09:53:21.575Z,79077.50
2022-12-11T09:56:05.415Z,79071.88
2022-12-11T09:58:46.994Z,79064.31
2022-12-11T10:01:33.220Z,79067.19
2022-12-11T10:04:22.425Z,79069.81
2022-12-11T10:07:22.228Z,79052.63
2022-12-11T10:09:55.827Z,79054.63
2022-12-11T10:12:56.549Z,79069.91
2022-12-11T10:15:45.234Z,79056.97
2022-12-11T10:18:23.256Z,79055.94
2022-12-11T10:20:55.118Z,79022.75
2022-12-11T10:23:36.537Z,79044.22
2022-12-11T10:26:20.406Z,79042.13
2022-12-11T10:28:49.542Z,79044.66
2022-12-11T10:31:28.863Z,79044.63
2022-12-11T10:34:10.527Z,79044.31
2022-12-11T10:36:42.696Z,79040.41
2022-12-11T10:39:17.898Z,79034.97
2022-12-11T10:41:49.772Z,79021.06
2022-12-11T10:44:25.186Z,79031.41
2022-12-11T10:47:08.779Z,79030.31
2022-12-11T10:49:39.560Z,79036.59
2022-12-11T10:52:14.523Z,79032.34
2022-12-11T10:54:49.996Z,79014.44
2022-12-11T10:57:30.068Z,79027.34
2022-12-11T11:00:00.944Z,79042.75
2022-12-11T11:02:42.662Z,79016.44
2022-12-11T11:05:40.998Z,79033.94
2022-12-11T11:08:22.679Z,79031.53
2022-12-11T11:10:54.630Z,79034.66
2022-12-11T11:13:26.407Z,79023.84
2022-12-11T11:16:12.825Z,79016.34
2022-12-11T11:18:43.071Z,79016.75
2022-12-11T11:21:20.266Z,79009.31
2022-12-11T11:23:53.292Z,79025.22
2022-12-11T11:26:30.760Z,79007.31
2022-12-11T11:29:08.130Z,79001.81
2022-12-11T11:31:37.720Z,78998.84
2022-12-11T11:34:19.970Z,79011.69
2022-12-11T11:36:58.708Z,79010.41
2022-12-11T11:39:32.498Z,79005.38
2022-12-11T11:42:28.658Z,79007.38
2022-12-11T11:45:04.767Z,79009.47
2022-12-11T11:47:43.136Z,78997.06
2022-12-11T11:50:21.394Z,79005.06
2022-12-11T11:53:01.211Z,78988.06
2022-12-11T11:55:30.136Z,78994.78
2022-12-11T11:58:00.199Z,78993.56
2022-12-11T12:00:33.947Z,78971.22
2022-12-11T12:03:24.272Z,78993.63
2022-12-11T12:06:18.904Z,78976.56
2022-12-11T12:09:19.470Z,78971.88
2022-12-11T12:12:11.330Z,78984.41
2022-12-11T12:14:53.030Z,78995.69
2022-12-11T12:18:00.921Z,78987.13
2022-12-11T12:20:53.215Z,78980.59
2022-12-11T12:23:37.159Z,78990.56
2022-12-11T12:26:12.843Z,78989.91
2022-12-11T12:29:13.831Z,78986.63
2022-12-11T12:31:48.987Z,78982.69
2022-12-11T12:34:51.646Z,78987.31
2022-12-11T12:37:47.529Z,78982.03
2022-12-11T12:40:30.128Z,78972.78
2022-12-11T12:43:27.503Z,78976.09
2022-12-11T12:46:26.780Z,78981.41
2022-12-11T12:48:58.499Z,78964.91
2022-12-11T12:51:28.959Z,78975.47
2022-12-11T12:54:03.217Z,78981.44
2022-12-11T12:56:34.683Z,78986.09
2022-12-11T12:59:03.387Z,78959.66
2022-12-11T13:01:32.919Z,78961.00
2022-12-11T13:04:26.200Z,78962.31
2022-12-11T13:06:58.525Z,78968.28
2022-12-11T13:09:29.614Z,78982.16
2022-12-11T13:11:58.873Z,78980.13
2022-12-11T13:15:17.463Z,78988.09
2022-12-11T13:17:46.886Z,78970.91
2022-12-11T13:20:27.663Z,78986.78
2022-12-11T13:23:08.670Z,78980.19
2022-12-11T13:25:56.820Z,78982.84
2022-12-11T13:28:34.568Z,78974.25
2022-12-11T13:31:31.643Z,78978.88
2022-12-11T13:34:14.944Z,78984.81
2022-12-11T13:36:50.536Z,78971.59
2022-12-11T13:39:23.820Z,78943.19
2022-12-11T13:42:04.588Z,78986.78
2022-12-11T13:44:40.412Z,78981.47
2022-12-11T13:47:16.918Z,78980.16
2022-12-11T13:49:50.718Z,78967.56
2022-12-11T13:52:23.798Z,78994.00
2022-12-11T13:54:56.210Z,78988.72
2022-12-11T13:57:29.504Z,78991.38
2022-12-11T14:00:00.921Z,78991.38
2022-12-11T14:02:41.123Z,78988.75
2022-12-11T14:05:16.549Z,78996.03
2022-12-11T14:07:58.885Z,78990.06
2022-12-11T14:10:31.684Z,79002.63
2022-12-11T14:13:03.120Z,78992.75
2022-12-11T14:15:34.839Z,78969.63
2022-12-11T14:18:06.988Z,79002.00
2022-12-11T14:20:36.792Z,78994.72
2022-12-11T14:23:10.640Z,78996.72
2022-12-11T14:25:40.526Z,78984.81
2022-12-11T14:28:19.474Z,78908.16
2022-12-11T14:30:52.335Z,78991.44
2022-12-11T14:33:27.059Z,79002.66
2022-12-11T14:35:57.877Z,78981.50
2022-12-11T14:38:48.144Z,78992.72
2022-12-11T14:41:55.894Z,79003.31
2022-12-11T14:44:28.826Z,79000.00
2022-12-11T14:47:05.623Z,78997.38
2022-12-11T14:50:07.159Z,78993.41
2022-12-11T14:52:44.770Z,78968.28
2022-12-11T14:55:28.020Z,78998.03
2022-12-11T14:58:20.799Z,78996.03
2022-12-11T15:01:22.343Z,78904.19
2022-12-11T15:04:03.139Z,78999.34
2022-12-11T15:06:35.714Z,78996.72
2022-12-11T15:09:22.429Z,78998.03
2022-12-11T15:11:53.462Z,78997.38
2022-12-11T15:14:26.046Z,78999.38
2022-12-11T15:16:59.161Z,78994.06
2022-12-11T15:19:36.482Z,78982.81
2022-12-11T15:22:10.651Z,78990.06
2022-12-11T15:24:49.893Z,78995.34
2022-12-11T15:27:41.443Z,78995.34
2022-12-11T15:30:30.126Z,78996.03
2022-12-11T15:33:11.809Z,78985.44
2022-12-11T15:35:53.696Z,78980.81
2022-12-11T15:38:35.530Z,78986.09
2022-12-11T15:41:06.170Z,78982.81
2022-12-11T15:43:39.886Z,78981.47
2022-12-11T15:46:10.161Z,78972.22
2022-12-11T15:48:39.769Z,78959.66
2022-12-11T15:51:09.035Z,78962.31
2022-12-11T15:53:38.738Z,78988.13
2022-12-11T15:56:08.554Z,78980.19
2022-12-11T15:58:38.199Z,78978.84
2022-12-11T16:01:08.830Z,78982.84
2022-12-11T16:03:38.743Z,78967.63
2022-12-11T16:06:13.435Z,78954.41
2022-12-11T16:08:43.255Z,78962.34
2022-12-11T16:11:15.386Z,78982.84
2022-12-11T16:13:45.527Z,78976.22
2022-12-11T16:16:15.563Z,78985.47
2022-12-11T16:18:45.495Z,78978.84
2022-12-11T16:21:18.273Z,78956.41
2022-12-11T16:23:51.117Z,78962.34
2022-12-11T16:26:21.756Z,78977.56
2022-12-11T16:28:52.104Z,78943.84
2022-12-11T16:31:23.509Z,78898.25
2022-12-11T16:33:53.629Z,78965.63
2022-12-11T16:36:24.736Z,78952.41
2022-12-11T16:38:56.647Z,78963.66
2022-12-11T16:41:27.048Z,78968.25
2022-12-11T16:43:57.162Z,78965.63
2022-12-11T16:46:27.146Z,78979.47
2022-12-11T16:48:57.887Z,78913.38
2022-12-11T16:51:27.330Z,78958.97
2022-12-11T16:53:56.823Z,78982.09
2022-12-11T16:56:27.749Z,78976.16
2022-12-11T16:58:57.671Z,78970.22
2022-12-11T17:01:26.924Z,78973.53
2022-12-11T17:03:56.780Z,78972.91
2022-12-11T17:06:26.469Z,78959.00
2022-12-11T17:08:56.464Z,78959.66
2022-12-11T17:11:27.264Z,78966.94
2022-12-11T17:13:58.839Z,78970.91
2022-12-11T17:16:34.984Z,78950.44
2022-12-11T17:19:08.418Z,78964.97
2022-12-11T17:21:38.242Z,78946.44
2022-12-11T17:24:11.549Z,78971.59
2022-12-11T17:26:41.276Z,78952.41
2022-12-11T17:29:13.007Z,78933.88
2022-12-11T17:31:43.092Z,78964.94
2022-12-11T17:34:12.576Z,78966.28
2022-12-11T17:36:42.688Z,78956.34
2022-12-11T17:39:13.324Z,78975.53
2022-12-11T17:41:43.026Z,78949.75
2022-12-11T17:44:12.605Z,78941.81
2022-12-11T17:46:41.959Z,78951.06
2022-12-11T17:49:11.740Z,78949.09
2022-12-11T17:51:41.262Z,78954.38
2022-12-11T17:54:12.340Z,78963.59
2022-12-11T17:56:42.278Z,78943.06
2022-12-11T17:59:11.819Z,78944.38
2022-12-11T18:01:41.316Z,78960.91
2022-12-11T18:04:10.571Z,78937.16
2022-12-11T18:06:40.067Z,78956.31
2022-12-11T18:09:10.246Z,78965.53
2022-12-11T18:11:40.090Z,78951.66
2022-12-11T18:14:16.673Z,78941.75
2022-12-11T18:16:47.430Z,78954.97
2022-12-11T18:19:18.018Z,78947.72
2022-12-11T18:21:48.272Z,78940.44
2022-12-11T18:24:18.400Z,78931.16
2022-12-11T18:26:47.988Z,78959.63
2022-12-11T18:29:17.541Z,78954.28
2022-12-11T18:31:47.092Z,78959.56
2022-12-11T18:34:16.499Z,78947.66
2022-12-11T18:36:46.852Z,78939.75
2022-12-11T18:39:17.218Z,78961.56
2022-12-11T18:41:58.376Z,78953.66
2022-12-11T18:44:36.261Z,78940.47
2022-12-11T18:47:05.662Z,78951.03
2022-12-11T18:49:35.373Z,78919.97
2022-12-11T18:52:05.721Z,78923.25
2022-12-11T18:54:35.170Z,78942.41
2022-12-11T18:57:04.786Z,78939.75
2022-12-11T18:59:34.461Z,78944.34
2022-12-11T19:02:04.325Z,78930.50
2022-12-11T19:04:34.407Z,78939.09
2022-12-11T19:07:04.086Z,78912.00
2022-12-11T19:09:37.900Z,78943.03
2022-12-11T19:12:08.470Z,78908.69
2022-12-11T19:14:37.860Z,78926.56
2022-12-11T19:17:07.277Z,78914.69
2022-12-11T19:19:36.925Z,78929.22
2022-12-11T19:22:06.282Z,78894.81
2022-12-11T19:24:35.653Z,78919.91
2022-12-11T19:27:11.674Z,78934.44
2022-12-11T19:29:42.657Z,78903.44
2022-12-11T19:32:12.062Z,78904.81
2022-12-11T19:34:42.314Z,78923.94
2022-12-11T19:37:11.884Z,78889.56
2022-12-11T19:39:41.868Z,78900.13
2022-12-11T19:42:11.077Z,78909.34
2022-12-11T19:44:40.263Z,78909.31
2022-12-11T19:47:09.661Z,78904.69
2022-12-11T19:49:38.989Z,78907.34
2022-12-11T19:52:08.306Z,78909.28
2022-12-11T19:54:37.848Z,78899.41
2022-12-11T19:57:07.129Z,78909.28
2022-12-11T19:59:36.605Z,78908.63
2022-12-11T20:02:06.621Z,78921.13
2022-12-11T20:04:36.291Z,78895.38
2022-12-11T20:07:05.771Z,78908.56
2022-12-11T20:09:35.689Z,78909.88
2022-12-11T20:12:07.112Z,78892.75
2022-12-11T20:14:36.605Z,78898.00
2022-12-11T20:17:12.441Z,78898.69
2022-12-11T20:19:43.995Z,78900.69
2022-12-11T20:22:13.614Z,78920.56
2022-12-11T20:24:43.570Z,78904.03
2022-12-11T20:27:13.677Z,78893.53
2022-12-11T20:29:43.171Z,78893.53
2022-12-11T20:32:12.615Z,78901.44
2022-12-11T20:34:42.251Z,78906.06
2022-12-11T20:37:11.947Z,78907.38
2022-12-11T20:39:41.174Z,78904.09
2022-12-11T20:42:11.395Z,78909.97
2022-12-11T20:44:45.710Z,78890.16
2022-12-11T20:47:20.647Z,78900.06
2022-12-11T20:49:51.656Z,78900.75
2022-12-11T20:52:21.973Z,78890.94
2022-12-11T20:54:51.915Z,78884.31
2022-12-11T20:57:21.467Z,78904.78
2022-12-11T20:59:51.541Z,78890.28
2022-12-11T21:02:21.003Z,78876.41
2022-12-11T21:04:51.595Z,78873.75
2022-12-11T21:07:20.933Z,78893.59
2022-12-11T21:09:50.091Z,78869.13
2022-12-11T21:12:19.798Z,78870.41
2022-12-11T21:14:49.103Z,78869.13
2022-12-11T21:17:18.828Z,78873.09
2022-12-11T21:19:48.183Z,78873.09
2022-12-11T21:22:18.118Z,78846.03
2022-12-11T21:24:47.384Z,78877.06
2022-12-11T21:27:17.129Z,78861.25
2022-12-11T21:29:46.752Z,78842.75
2022-12-11T21:32:16.143Z,78854.59
2022-12-11T21:34:46.227Z,78841.41
2022-12-11T21:37:15.721Z,78861.91
2022-12-11T21:39:45.223Z,78850.00
2022-12-11T21:42:14.519Z,78869.81
2022-12-11T21:47:33.975Z,78858.59
2022-12-11T21:50:04.417Z,78846.72
2022-12-11T21:52:33.978Z,78844.06
2022-12-11T21:55:03.336Z,78844.72
2022-12-11T21:57:33.031Z,78867.84
2022-12-11T22:00:05.605Z,78855.97
2022-12-11T22:02:41.407Z,78825.59
2022-12-11T22:05:15.865Z,78844.06
2022-12-11T22:07:45.748Z,78838.78
2022-12-11T22:10:15.136Z,78836.16
2022-12-11T22:12:44.993Z,78828.25
2022-12-11T22:15:15.405Z,78848.72
2022-12-11T22:17:45.036Z,78852.00
2022-12-11T22:20:14.510Z,78857.28
2022-12-11T22:22:43.911Z,78862.53
2022-12-11T22:25:13.862Z,78851.31
2022-12-11T22:27:44.011Z,78836.16
2022-12-11T22:30:13.912Z,78838.09
2022-12-11T22:32:44.267Z,78865.19
2022-12-11T22:35:15.627Z,78844.75
2022-12-11T22:37:45.375Z,78863.88
2022-12-11T22:40:14.866Z,78864.56
2022-12-11T22:42:45.332Z,78844.06
2022-12-11T22:45:14.936Z,78856.63
2022-12-11T22:47:44.679Z,78836.81
2022-12-11T22:50:15.455Z,78836.13
2022-12-11T22:52:46.376Z,78853.31
2022-12-11T22:55:16.595Z,78839.44
2022-12-11T22:57:45.929Z,78846.06
2022-12-11T23:00:16.011Z,78837.50
2022-12-11T23:02:46.415Z,78850.03
2022-12-11T23:05:15.876Z,78850.69
2022-12-11T23:07:45.266Z,78850.03
2022-12-11T23:10:14.872Z,78849.38
2022-12-11T23:12:45.056Z,78851.38
2022-12-11T23:15:14.773Z,78858.63
2022-12-11T23:17:44.263Z,78848.03
2022-12-11T23:20:14.145Z,78824.25
2022-12-11T23:22:43.417Z,78830.22
2022-12-11T23:25:15.333Z,78848.03
2022-12-11T23:27:44.898Z,78841.44
2022-12-11T23:30:14.727Z,78828.88
2022-12-11T23:32:44.209Z,78844.03
2022-12-11T23:35:14.093Z,78851.31
2022-12-11T23:37:43.986Z,78842.72
2022-12-11T23:40:16.477Z,78854.63
2022-12-11T23:42:46.185Z,78851.31
2022-12-11T23:45:15.607Z,78861.88
2022-12-11T23:47:45.104Z,78844.72
2022-12-11T23:50:14.360Z,78838.78
2022-12-11T23:52:43.831Z,78859.91
2022-12-11T23:55:13.920Z,78847.38
2022-12-11T23:57:43.533Z,78853.31
